createdAt,value
2023-03-06T00:14:41.685Z,3.4
2023-03-06T00:43:59.224Z,3.4
2023-03-06T01:13:19.946Z,3.4
2023-03-06T01:42:36.545Z,3.3
2023-03-06T02:11:52.814Z,3.1
2023-03-06T02:41:10.387Z,2.9
2023-03-06T03:10:29.388Z,2.8
2023-03-06T03:39:38.218Z,2.8
2023-03-06T04:08:55.779Z,2.8
2023-03-06T04:38:06.886Z,2.7
2023-03-06T05:07:24.487Z,2.5
2023-03-06T05:36:46.430Z,2.4
2023-03-06T06:06:03.512Z,2.4
2023-03-06T06:35:23.558Z,2.5
2023-03-06T07:04:34.580Z,2.4
2023-03-06T07:33:51.419Z,2.6
2023-03-06T08:03:06.315Z,2.9
2023-03-06T08:32:21.811Z,3.2
2023-03-06T09:01:28.966Z,3.5
2023-03-06T09:30:38.709Z,3.6
2023-03-06T09:59:52.439Z,3.8
2023-03-06T10:29:04.081Z,4.2
2023-03-06T10:58:24.374Z,4.4
2023-03-06T11:27:33.221Z,4.9
2023-03-06T11:56:54.744Z,5.2
2023-03-06T12:26:07.507Z,5.2
2023-03-06T12:55:26.417Z,5.3
2023-03-06T13:24:09.748Z,5
2023-03-06T13:53:28.032Z,4.8
2023-03-06T14:22:43.231Z,4.7
2023-03-06T14:51:45.776Z,4.9
2023-03-06T15:20:59.031Z,5
2023-03-06T15:50:13.376Z,4.9
2023-03-06T16:19:35.870Z,4.9
2023-03-06T16:48:48.671Z,4.8
2023-03-06T17:18:04.178Z,4.7
2023-03-06T17:47:18.714Z,4.5
2023-03-06T18:16:37.839Z,4.2
2023-03-06T18:45:51.560Z,4
2023-03-06T19:15:08.396Z,3.7
2023-03-06T19:44:27.460Z,3.7
2023-03-06T20:13:48.297Z,3.5
2023-03-06T20:42:38.300Z,3.4
2023-03-06T21:11:52.625Z,3.3
2023-03-06T21:41:10.743Z,3.2
2023-03-06T22:10:27.965Z,3.3
2023-03-06T22:39:47.592Z,3.2
2023-03-06T23:09:00.252Z,3.1
2023-03-06T23:38:15.001Z,3
